sensor_id;sensor_type;location;lat;lon;timestamp;pressure;altitude;pressure_sealevel;temperature;humidity
63607;BME280;71992;52.478;-1.918;2023-08-08T00:00:03;99868.88;;;13.62;69.63
63607;BME280;71992;52.478;-1.918;2023-08-08T00:02:34;99859.34;;;13.57;69.92
63607;BME280;71992;52.478;-1.918;2023-08-08T00:05:06;99856.81;;;13.56;70.50
63607;BME280;71992;52.478;-1.918;2023-08-08T00:07:37;99860.84;;;13.62;70.98
63607;BME280;71992;52.478;-1.918;2023-08-08T00:10:10;99861.94;;;13.59;70.92
63607;BME280;71992;52.478;-1.918;2023-08-08T00:12:41;99863.41;;;13.63;70.72
63607;BME280;71992;52.478;-1.918;2023-08-08T00:15:12;99856.91;;;13.54;70.52
63607;BME280;71992;52.478;-1.918;2023-08-08T00:17:43;99848.97;;;13.53;71.77
63607;BME280;71992;52.478;-1.918;2023-08-08T00:20:14;99849.97;;;13.52;71.78
63607;BME280;71992;52.478;-1.918;2023-08-08T00:22:45;99854.22;;;13.54;71.27
63607;BME280;71992;52.478;-1.918;2023-08-08T00:25:19;99840.44;;;13.48;71.39
63607;BME280;71992;52.478;-1.918;2023-08-08T00:27:50;99826.13;;;13.36;71.39
63607;BME280;71992;52.478;-1.918;2023-08-08T00:30:21;99837.81;;;13.35;71.57
63607;BME280;71992;52.478;-1.918;2023-08-08T00:32:52;99839.13;;;13.29;72.29
63607;BME280;71992;52.478;-1.918;2023-08-08T00:35:23;99833.47;;;13.21;72.56
63607;BME280;71992;52.478;-1.918;2023-08-08T00:37:54;99842.19;;;13.12;72.91
63607;BME280;71992;52.478;-1.918;2023-08-08T00:40:28;99838.16;;;13.06;73.03
63607;BME280;71992;52.478;-1.918;2023-08-08T00:42:59;99827.78;;;13.02;73.13
63607;BME280;71992;52.478;-1.918;2023-08-08T00:45:31;99825.44;;;12.97;73.29
63607;BME280;71992;52.478;-1.918;2023-08-08T00:48:02;99819.78;;;12.89;73.49
63607;BME280;71992;52.478;-1.918;2023-08-08T00:50:34;99820.03;;;12.86;73.71
63607;BME280;71992;52.478;-1.918;2023-08-08T00:53:06;99829.84;;;12.85;74.31
63607;BME280;71992;52.478;-1.918;2023-08-08T00:55:40;99824.72;;;12.82;74.27
63607;BME280;71992;52.478;-1.918;2023-08-08T00:58:12;99812.41;;;12.80;74.67
63607;BME280;71992;52.478;-1.918;2023-08-08T01:00:43;99814.88;;;12.83;74.69
63607;BME280;71992;52.478;-1.918;2023-08-08T01:03:14;99813.06;;;12.83;74.91
63607;BME280;71992;52.478;-1.918;2023-08-08T01:05:51;99810.19;;;12.73;75.06
63607;BME280;71992;52.478;-1.918;2023-08-08T01:08:28;99818.22;;;12.73;75.44
63607;BME280;71992;52.478;-1.918;2023-08-08T01:11:05;99810.41;;;12.70;75.95
63607;BME280;71992;52.478;-1.918;2023-08-08T01:13:38;99799.69;;;12.70;76.40
63607;BME280;71992;52.478;-1.918;2023-08-08T01:16:09;99799.69;;;12.70;76.35
63607;BME280;71992;52.478;-1.918;2023-08-08T01:18:42;99799.94;;;12.67;76.62
63607;BME280;71992;52.478;-1.918;2023-08-08T01:21:14;99790.63;;;12.60;77.28
63607;BME280;71992;52.478;-1.918;2023-08-08T01:23:46;99793.13;;;12.50;76.81
63607;BME280;71992;52.478;-1.918;2023-08-08T01:26:25;99783.25;;;12.51;77.84
63607;BME280;71992;52.478;-1.918;2023-08-08T01:28:57;99782.63;;;12.47;78.10
63607;BME280;71992;52.478;-1.918;2023-08-08T01:31:30;99771.19;;;12.45;78.05
63607;BME280;71992;52.478;-1.918;2023-08-08T01:34:01;99774.72;;;12.46;78.21
63607;BME280;71992;52.478;-1.918;2023-08-08T01:36:37;99772.88;;;12.46;78.21
63607;BME280;71992;52.478;-1.918;2023-08-08T01:39:14;99779.81;;;12.49;78.54
63607;BME280;71992;52.478;-1.918;2023-08-08T01:41:50;99767.72;;;12.56;78.60
63607;BME280;71992;52.478;-1.918;2023-08-08T01:44:24;99767.38;;;12.61;78.44
63607;BME280;71992;52.478;-1.918;2023-08-08T01:46:56;99770.91;;;12.61;78.06
63607;BME280;71992;52.478;-1.918;2023-08-08T01:49:27;99769.06;;;12.62;78.27
63607;BME280;71992;52.478;-1.918;2023-08-08T01:51:58;99768.97;;;12.63;77.92
63607;BME280;71992;52.478;-1.918;2023-08-08T01:54:31;99752.16;;;12.61;78.19
63607;BME280;71992;52.478;-1.918;2023-08-08T01:57:05;99761.16;;;12.60;78.46
63607;BME280;71992;52.478;-1.918;2023-08-08T01:59:36;99754.94;;;12.60;78.77
63607;BME280;71992;52.478;-1.918;2023-08-08T02:02:06;99759.78;;;12.54;78.88
63607;BME280;71992;52.478;-1.918;2023-08-08T02:04:37;99761.22;;;12.47;78.94
63607;BME280;71992;52.478;-1.918;2023-08-08T02:07:08;99759.38;;;12.48;79.46
63607;BME280;71992;52.478;-1.918;2023-08-08T02:09:41;99755.97;;;12.46;79.21
63607;BME280;71992;52.478;-1.918;2023-08-08T02:12:16;99752.53;;;12.44;80.99
63607;BME280;71992;52.478;-1.918;2023-08-08T02:14:52;99753.72;;;12.40;80.58
63607;BME280;71992;52.478;-1.918;2023-08-08T02:17:31;99750.09;;;12.41;80.36
63607;BME280;71992;52.478;-1.918;2023-08-08T02:20:05;99748.03;;;12.44;80.53
63607;BME280;71992;52.478;-1.918;2023-08-08T02:22:40;99745.25;;;12.46;80.87
63607;BME280;71992;52.478;-1.918;2023-08-08T02:25:12;99755.00;;;12.47;81.01
63607;BME280;71992;52.478;-1.918;2023-08-08T02:27:46;99755.00;;;12.47;81.48
63607;BME280;71992;52.478;-1.918;2023-08-08T02:30:19;99752.34;;;12.47;82.37
63607;BME280;71992;52.478;-1.918;2023-08-08T02:32:52;99759.63;;;12.45;82.02
63607;BME280;71992;52.478;-1.918;2023-08-08T02:35:23;99756.72;;;12.48;81.89
63607;BME280;71992;52.478;-1.918;2023-08-08T02:37:55;99746.50;;;12.53;82.34
63607;BME280;71992;52.478;-1.918;2023-08-08T02:40:26;99751.75;;;12.54;81.95
63607;BME280;71992;52.478;-1.918;2023-08-08T02:43:02;99740.41;;;12.51;81.77
63607;BME280;71992;52.478;-1.918;2023-08-08T02:45:34;99743.81;;;12.53;82.09
63607;BME280;71992;52.478;-1.918;2023-08-08T02:48:06;99742.22;;;12.50;82.64
63607;BME280;71992;52.478;-1.918;2023-08-08T02:50:40;99744.16;;;12.48;82.44
63607;BME280;71992;52.478;-1.918;2023-08-08T02:53:13;99748.44;;;12.51;83.00
63607;BME280;71992;52.478;-1.918;2023-08-08T02:55:49;99754.88;;;12.48;82.83
63607;BME280;71992;52.478;-1.918;2023-08-08T02:58:25;99748.16;;;12.43;82.74
63607;BME280;71992;52.478;-1.918;2023-08-08T03:00:56;99743.16;;;12.38;83.81
63607;BME280;71992;52.478;-1.918;2023-08-08T03:03:28;99740.66;;;12.35;84.11
63607;BME280;71992;52.478;-1.918;2023-08-08T03:06:00;99746.38;;;12.30;84.32
63607;BME280;71992;52.478;-1.918;2023-08-08T03:08:31;99748.28;;;12.28;84.35
63607;BME280;71992;52.478;-1.918;2023-08-08T03:11:03;99743.28;;;12.24;84.56
63607;BME280;71992;52.478;-1.918;2023-08-08T03:13:37;99746.59;;;12.27;84.98
63607;BME280;71992;52.478;-1.918;2023-08-08T03:16:10;99748.09;;;12.31;85.13
63607;BME280;71992;52.478;-1.918;2023-08-08T03:18:41;99756.72;;;12.35;85.04
63607;BME280;71992;52.478;-1.918;2023-08-08T03:21:12;99745.06;;;12.36;85.17
63607;BME280;71992;52.478;-1.918;2023-08-08T03:23:44;99744.75;;;12.41;84.91
63607;BME280;71992;52.478;-1.918;2023-08-08T03:26:16;99751.03;;;12.40;84.85
63607;BME280;71992;52.478;-1.918;2023-08-08T03:28:50;99741.41;;;12.37;84.75
63607;BME280;71992;52.478;-1.918;2023-08-08T03:31:29;99755.44;;;12.41;85.29
63607;BME280;71992;52.478;-1.918;2023-08-08T03:34:02;99749.84;;;12.44;85.12
63607;BME280;71992;52.478;-1.918;2023-08-08T03:36:34;99744.84;;;12.39;84.89
63607;BME280;71992;52.478;-1.918;2023-08-08T03:39:06;99752.53;;;12.44;84.96
63607;BME280;71992;52.478;-1.918;2023-08-08T03:41:39;99750.84;;;12.43;85.05
63607;BME280;71992;52.478;-1.918;2023-08-08T03:44:12;99753.38;;;12.44;85.51
63607;BME280;71992;52.478;-1.918;2023-08-08T03:46:43;99746.97;;;12.47;84.99
63607;BME280;71992;52.478;-1.918;2023-08-08T03:49:15;99750.50;;;12.47;85.19
63607;BME280;71992;52.478;-1.918;2023-08-08T03:51:46;99739.78;;;12.47;85.48
63607;BME280;71992;52.478;-1.918;2023-08-08T03:54:18;99737.31;;;12.44;85.94
63607;BME280;71992;52.478;-1.918;2023-08-08T03:56:48;99733.03;;;12.42;86.10
63607;BME280;71992;52.478;-1.918;2023-08-08T03:59:24;99723.53;;;12.38;86.57
63607;BME280;71992;52.478;-1.918;2023-08-08T04:01:55;99724.50;;;12.37;86.58
63607;BME280;71992;52.478;-1.918;2023-08-08T04:04:26;99727.28;;;12.35;86.42
63607;BME280;71992;52.478;-1.918;2023-08-08T04:06:57;99731.03;;;12.32;86.60
63607;BME280;71992;52.478;-1.918;2023-08-08T04:09:28;99734.56;;;12.33;86.81
63607;BME280;71992;52.478;-1.918;2023-08-08T04:11:59;99732.22;;;12.28;87.15
63607;BME280;71992;52.478;-1.918;2023-08-08T04:14:33;99742.59;;;12.33;87.25
63607;BME280;71992;52.478;-1.918;2023-08-08T04:17:06;99737.13;;;12.35;87.40
63607;BME280;71992;52.478;-1.918;2023-08-08T04:19:37;99724.41;;;12.38;87.36
63607;BME280;71992;52.478;-1.918;2023-08-08T04:22:08;99733.03;;;12.42;87.37
63607;BME280;71992;52.478;-1.918;2023-08-08T04:24:39;99729.19;;;12.46;87.23
63607;BME280;71992;52.478;-1.918;2023-08-08T04:27:10;99728.09;;;12.48;87.39
63607;BME280;71992;52.478;-1.918;2023-08-08T04:29:44;99729.81;;;12.49;87.00
63607;BME280;71992;52.478;-1.918;2023-08-08T04:32:15;99729.91;;;12.48;87.30
63607;BME280;71992;52.478;-1.918;2023-08-08T04:34:46;99724.91;;;12.43;87.18
63607;BME280;71992;52.478;-1.918;2023-08-08T04:37:17;99703.06;;;12.37;87.57
63607;BME280;71992;52.478;-1.918;2023-08-08T04:39:47;99711.63;;;12.42;87.55
63607;BME280;71992;52.478;-1.918;2023-08-08T04:42:18;99713.44;;;12.41;87.76
63607;BME280;71992;52.478;-1.918;2023-08-08T04:44:52;99720.53;;;12.42;87.92
63607;BME280;71992;52.478;-1.918;2023-08-08T04:47:23;99714.19;;;12.43;88.12
63607;BME280;71992;52.478;-1.918;2023-08-08T04:49:53;99714.28;;;12.42;88.09
63607;BME280;71992;52.478;-1.918;2023-08-08T04:52:24;99706.72;;;12.36;88.34
63607;BME280;71992;52.478;-1.918;2023-08-08T04:54:55;99717.97;;;12.41;88.40
63607;BME280;71992;52.478;-1.918;2023-08-08T04:57:26;99712.69;;;12.39;88.41
63607;BME280;71992;52.478;-1.918;2023-08-08T05:00:00;99711.84;;;12.39;89.10
63607;BME280;71992;52.478;-1.918;2023-08-08T05:02:33;99713.56;;;12.40;88.57
63607;BME280;71992;52.478;-1.918;2023-08-08T05:05:08;99713.34;;;12.43;88.77
63607;BME280;71992;52.478;-1.918;2023-08-08T05:07:39;99710.53;;;12.44;88.89
63607;BME280;71992;52.478;-1.918;2023-08-08T05:10:10;99707.34;;;12.39;88.79
63607;BME280;71992;52.478;-1.918;2023-08-08T05:12:41;99721.13;;;12.46;88.93
63607;BME280;71992;52.478;-1.918;2023-08-08T05:15:14;99704.00;;;12.48;89.13
63607;BME280;71992;52.478;-1.918;2023-08-08T05:17:45;99697.78;;;12.48;88.64
63607;BME280;71992;52.478;-1.918;2023-08-08T05:20:16;99690.38;;;12.51;89.09
63607;BME280;71992;52.478;-1.918;2023-08-08T05:22:47;99692.81;;;12.54;89.22
63607;BME280;71992;52.478;-1.918;2023-08-08T05:25:18;99695.25;;;12.58;89.17
63607;BME280;71992;52.478;-1.918;2023-08-08T05:27:49;99700.63;;;12.58;89.05
63607;BME280;71992;52.478;-1.918;2023-08-08T05:30:24;99695.16;;;12.59;89.20
63607;BME280;71992;52.478;-1.918;2023-08-08T05:32:55;99701.38;;;12.60;88.91
63607;BME280;71992;52.478;-1.918;2023-08-08T05:35:26;99710.25;;;12.60;89.09
63607;BME280;71992;52.478;-1.918;2023-08-08T05:37:57;99711.97;;;12.61;89.05
63607;BME280;71992;52.478;-1.918;2023-08-08T05:40:27;99715.50;;;12.62;89.24
63607;BME280;71992;52.478;-1.918;2023-08-08T05:42:58;99701.16;;;12.63;89.59
63607;BME280;71992;52.478;-1.918;2023-08-08T05:45:32;99691.53;;;12.71;89.12
63607;BME280;71992;52.478;-1.918;2023-08-08T05:48:03;99694.22;;;12.71;88.81
63607;BME280;71992;52.478;-1.918;2023-08-08T05:50:34;99701.91;;;12.76;88.90
63607;BME280;71992;52.478;-1.918;2023-08-08T05:53:07;99701.56;;;12.81;89.08
63607;BME280;71992;52.478;-1.918;2023-08-08T05:55:40;99699.03;;;12.79;88.87
63607;BME280;71992;52.478;-1.918;2023-08-08T05:58:11;99700.13;;;12.77;89.13
63607;BME280;71992;52.478;-1.918;2023-08-08T06:00:44;99699.75;;;12.81;89.35
63607;BME280;71992;52.478;-1.918;2023-08-08T06:03:15;99684.88;;;12.77;89.05
63607;BME280;71992;52.478;-1.918;2023-08-08T06:05:46;99697.81;;;12.83;89.07
63607;BME280;71992;52.478;-1.918;2023-08-08T06:08:17;99695.84;;;12.85;88.97
63607;BME280;71992;52.478;-1.918;2023-08-08T06:10:48;99704.53;;;12.89;89.18
63607;BME280;71992;52.478;-1.918;2023-08-08T06:13:19;99702.84;;;12.88;89.12
63607;BME280;71992;52.478;-1.918;2023-08-08T06:15:53;99705.03;;;12.94;89.20
63607;BME280;71992;52.478;-1.918;2023-08-08T06:18:23;99697.00;;;12.94;89.25
63607;BME280;71992;52.478;-1.918;2023-08-08T06:20:54;99697.88;;;12.94;89.13
63607;BME280;71992;52.478;-1.918;2023-08-08T06:23:25;99687.84;;;12.96;89.32
63607;BME280;71992;52.478;-1.918;2023-08-08T06:25:56;99688.38;;;13.02;89.17
63607;BME280;71992;52.478;-1.918;2023-08-08T06:28:27;99686.31;;;13.05;88.92
63607;BME280;71992;52.478;-1.918;2023-08-08T06:31:01;99691.31;;;13.10;88.86
63607;BME280;71992;52.478;-1.918;2023-08-08T06:33:32;99682.78;;;13.16;88.97
63607;BME280;71992;52.478;-1.918;2023-08-08T06:36:04;99667.34;;;13.20;88.46
63607;BME280;71992;52.478;-1.918;2023-08-08T06:38:35;99676.38;;;13.30;88.23
63607;BME280;71992;52.478;-1.918;2023-08-08T06:41:06;99675.66;;;13.39;87.70
63607;BME280;71992;52.478;-1.918;2023-08-08T06:43:37;99681.53;;;13.67;87.20
63607;BME280;71992;52.478;-1.918;2023-08-08T06:46:10;99683.22;;;14.02;86.17
63607;BME280;71992;52.478;-1.918;2023-08-08T06:48:42;99679.53;;;14.14;84.92
63607;BME280;71992;52.478;-1.918;2023-08-08T06:51:13;99668.78;;;14.25;84.37
63607;BME280;71992;52.478;-1.918;2023-08-08T06:53:44;99681.81;;;14.30;83.77
63607;BME280;71992;52.478;-1.918;2023-08-08T06:56:15;99679.53;;;14.25;83.61
63607;BME280;71992;52.478;-1.918;2023-08-08T06:58:46;99683.69;;;14.18;83.62
63607;BME280;71992;52.478;-1.918;2023-08-08T07:01:19;99682.13;;;14.15;83.72
63607;BME280;71992;52.478;-1.918;2023-08-08T07:03:51;99681.25;;;14.15;83.54
63607;BME280;71992;52.478;-1.918;2023-08-08T07:06:21;99681.38;;;14.13;83.72
63607;BME280;71992;52.478;-1.918;2023-08-08T07:08:52;99683.44;;;14.10;83.51
63607;BME280;71992;52.478;-1.918;2023-08-08T07:11:23;99675.03;;;14.03;83.58
63607;BME280;71992;52.478;-1.918;2023-08-08T07:13:54;99674.56;;;13.98;83.71
63607;BME280;71992;52.478;-1.918;2023-08-08T07:16:28;99668.00;;;13.91;84.12
63607;BME280;71992;52.478;-1.918;2023-08-08T07:18:59;99674.22;;;13.91;84.52
63607;BME280;71992;52.478;-1.918;2023-08-08T07:21:30;99669.22;;;13.87;84.68
63607;BME280;71992;52.478;-1.918;2023-08-08T07:24:01;99668.25;;;13.88;84.61
63607;BME280;71992;52.478;-1.918;2023-08-08T07:26:32;99671.78;;;13.88;84.60
63607;BME280;71992;52.478;-1.918;2023-08-08T07:29:03;99666.28;;;13.90;84.71
63607;BME280;71992;52.478;-1.918;2023-08-08T07:31:37;99671.53;;;13.91;84.93
63607;BME280;71992;52.478;-1.918;2023-08-08T07:34:08;99670.41;;;13.94;84.86
63607;BME280;71992;52.478;-1.918;2023-08-08T07:36:39;99671.28;;;13.94;85.03
63607;BME280;71992;52.478;-1.918;2023-08-08T07:39:10;99667.13;;;14.02;84.86
63607;BME280;71992;52.478;-1.918;2023-08-08T07:41:41;99668.22;;;14.10;84.85
63607;BME280;71992;52.478;-1.918;2023-08-08T07:44:12;99668.06;;;14.12;84.54
63607;BME280;71992;52.478;-1.918;2023-08-08T07:46:46;99655.09;;;14.17;84.85
63607;BME280;71992;52.478;-1.918;2023-08-08T07:49:17;99663.13;;;14.28;84.47
63607;BME280;71992;52.478;-1.918;2023-08-08T07:51:48;99663.25;;;14.38;84.04
63607;BME280;71992;52.478;-1.918;2023-08-08T07:54:19;99657.22;;;14.46;83.66
63607;BME280;71992;52.478;-1.918;2023-08-08T07:56:50;99659.41;;;14.52;83.63
63607;BME280;71992;52.478;-1.918;2023-08-08T07:59:21;99664.63;;;14.53;83.35
63607;BME280;71992;52.478;-1.918;2023-08-08T08:01:54;99666.00;;;14.59;83.08
63607;BME280;71992;52.478;-1.918;2023-08-08T08:04:25;99660.97;;;14.66;82.49
63607;BME280;71992;52.478;-1.918;2023-08-08T08:06:56;99653.38;;;14.71;82.61
63607;BME280;71992;52.478;-1.918;2023-08-08T08:09:27;99655.63;;;14.87;82.64
63607;BME280;71992;52.478;-1.918;2023-08-08T08:11:58;99645.66;;;14.98;82.21
63607;BME280;71992;52.478;-1.918;2023-08-08T08:14:29;99650.84;;;15.11;81.66
63607;BME280;71992;52.478;-1.918;2023-08-08T08:17:03;99649.72;;;15.14;81.16
63607;BME280;71992;52.478;-1.918;2023-08-08T08:19:34;99650.84;;;15.11;81.18
63607;BME280;71992;52.478;-1.918;2023-08-08T08:22:05;99650.22;;;15.08;81.38
63607;BME280;71992;52.478;-1.918;2023-08-08T08:24:36;99659.91;;;15.10;81.52
63607;BME280;71992;52.478;-1.918;2023-08-08T08:27:08;99654.66;;;15.09;81.23
63607;BME280;71992;52.478;-1.918;2023-08-08T08:29:39;99650.84;;;15.11;81.16
63607;BME280;71992;52.478;-1.918;2023-08-08T08:32:12;99650.75;;;15.22;80.93
63607;BME280;71992;52.478;-1.918;2023-08-08T08:34:43;99652.66;;;15.32;81.10
63607;BME280;71992;52.478;-1.918;2023-08-08T08:37:14;99652.56;;;15.43;80.97
63607;BME280;71992;52.478;-1.918;2023-08-08T08:39:45;99650.47;;;15.47;80.32
63607;BME280;71992;52.478;-1.918;2023-08-08T08:42:17;99646.16;;;15.34;80.37
63607;BME280;71992;52.478;-1.918;2023-08-08T08:44:49;99647.41;;;15.30;80.71
63607;BME280;71992;52.478;-1.918;2023-08-08T08:47:24;99655.16;;;15.23;81.16
63607;BME280;71992;52.478;-1.918;2023-08-08T08:49:55;99646.06;;;15.15;81.40
63607;BME280;71992;52.478;-1.918;2023-08-08T08:52:29;99651.56;;;15.13;81.84
63607;BME280;71992;52.478;-1.918;2023-08-08T08:55:00;99657.78;;;15.14;82.04
63607;BME280;71992;52.478;-1.918;2023-08-08T08:57:32;99653.13;;;15.16;82.12
63607;BME280;71992;52.478;-1.918;2023-08-08T09:00:05;99647.75;;;15.16;82.38
63607;BME280;71992;52.478;-1.918;2023-08-08T09:02:39;99652.00;;;15.18;82.68
63607;BME280;71992;52.478;-1.918;2023-08-08T09:05:11;99646.91;;;15.15;82.58
63607;BME280;71992;52.478;-1.918;2023-08-08T09:07:43;99643.22;;;15.16;83.08
63607;BME280;71992;52.478;-1.918;2023-08-08T09:10:15;99645.66;;;15.19;83.31
63607;BME280;71992;52.478;-1.918;2023-08-08T09:12:46;99648.19;;;15.21;83.01
63607;BME280;71992;52.478;-1.918;2023-08-08T09:15:17;99654.81;;;15.17;83.54
63607;BME280;71992;52.478;-1.918;2023-08-08T09:17:52;99646.56;;;15.09;83.92
63607;BME280;71992;52.478;-1.918;2023-08-08T09:20:23;99640.06;;;15.11;84.09
63607;BME280;71992;52.478;-1.918;2023-08-08T09:22:56;99640.53;;;15.16;84.05
63607;BME280;71992;52.478;-1.918;2023-08-08T09:25:27;99633.56;;;15.14;84.35
63607;BME280;71992;52.478;-1.918;2023-08-08T09:27:58;99642.75;;;15.11;84.41
63607;BME280;71992;52.478;-1.918;2023-08-08T09:30:29;99636.88;;;15.17;84.86
63607;BME280;71992;52.478;-1.918;2023-08-08T09:33:03;99645.38;;;15.22;84.91
63607;BME280;71992;52.478;-1.918;2023-08-08T09:35:38;99646.09;;;15.24;85.90
63607;BME280;71992;52.478;-1.918;2023-08-08T09:38:11;99644.66;;;15.20;86.25
63607;BME280;71992;52.478;-1.918;2023-08-08T09:40:42;99642.75;;;15.11;86.48
63607;BME280;71992;52.478;-1.918;2023-08-08T09:43:14;99639.34;;;15.09;86.55
63607;BME280;71992;52.478;-1.918;2023-08-08T09:45:47;99633.13;;;15.09;86.78
63607;BME280;71992;52.478;-1.918;2023-08-08T09:48:21;99644.47;;;15.12;86.73
63607;BME280;71992;52.478;-1.918;2023-08-08T09:50:52;99633.97;;;15.09;85.73
63607;BME280;71992;52.478;-1.918;2023-08-08T09:53:24;99635.09;;;15.07;85.90
63607;BME280;71992;52.478;-1.918;2023-08-08T09:55:55;99638.84;;;15.15;86.20
63607;BME280;71992;52.478;-1.918;2023-08-08T09:58:30;99638.75;;;15.27;85.80
63607;BME280;71992;52.478;-1.918;2023-08-08T10:01:01;99642.72;;;15.32;84.53
63607;BME280;71992;52.478;-1.918;2023-08-08T10:03:35;99634.13;;;15.38;83.29
63607;BME280;71992;52.478;-1.918;2023-08-08T10:06:07;99626.91;;;15.39;81.31
63607;BME280;71992;52.478;-1.918;2023-08-08T10:08:38;99636.56;;;15.41;81.59
63607;BME280;71992;52.478;-1.918;2023-08-08T10:11:09;99638.28;;;15.42;81.17
63607;BME280;71992;52.478;-1.918;2023-08-08T10:13:47;99639.72;;;15.47;81.60
63607;BME280;71992;52.478;-1.918;2023-08-08T10:16:19;99624.00;;;15.52;81.37
63607;BME280;71992;52.478;-1.918;2023-08-08T10:18:59;99635.94;;;15.59;81.07
63607;BME280;71992;52.478;-1.918;2023-08-08T10:21:33;99636.66;;;15.61;81.69
63607;BME280;71992;52.478;-1.918;2023-08-08T10:24:06;99641.59;;;15.56;81.91
63607;BME280;71992;52.478;-1.918;2023-08-08T10:26:51;99647.81;;;15.56;82.93
63607;BME280;71992;52.478;-1.918;2023-08-08T10:29:25;99651.47;;;15.55;82.13
63607;BME280;71992;52.478;-1.918;2023-08-08T10:31:59;99657.56;;;15.48;82.36
63607;BME280;71992;52.478;-1.918;2023-08-08T10:34:41;99653.56;;;15.42;82.85
63607;BME280;71992;52.478;-1.918;2023-08-08T10:37:13;99647.78;;;15.47;83.59
63607;BME280;71992;52.478;-1.918;2023-08-08T10:39:52;99631.75;;;15.45;84.75
63607;BME280;71992;52.478;-1.918;2023-08-08T10:42:24;99641.41;;;15.48;85.37
63607;BME280;71992;52.478;-1.918;2023-08-08T10:44:56;99631.75;;;15.45;85.57
63607;BME280;71992;52.478;-1.918;2023-08-08T10:47:31;99622.94;;;15.33;85.80
63607;BME280;71992;52.478;-1.918;2023-08-08T10:50:07;99623.59;;;15.25;86.47
63607;BME280;71992;52.478;-1.918;2023-08-08T10:52:50;99623.25;;;15.19;86.89
63607;BME280;71992;52.478;-1.918;2023-08-08T10:55:23;99623.75;;;15.24;87.25
63607;BME280;71992;52.478;-1.918;2023-08-08T10:57:57;99625.75;;;15.32;87.92
63607;BME280;71992;52.478;-1.918;2023-08-08T11:00:31;99622.34;;;15.30;87.18
63607;BME280;71992;52.478;-1.918;2023-08-08T11:03:03;99620.38;;;15.32;86.68
63607;BME280;71992;52.478;-1.918;2023-08-08T11:05:39;99619.84;;;15.38;86.52
63607;BME280;71992;52.478;-1.918;2023-08-08T11:08:15;99609.94;;;15.48;86.35
63607;BME280;71992;52.478;-1.918;2023-08-08T11:10:51;99610.84;;;15.58;86.69
63607;BME280;71992;52.478;-1.918;2023-08-08T11:13:23;99618.78;;;15.60;86.00
63607;BME280;71992;52.478;-1.918;2023-08-08T11:15:53;99612.72;;;15.58;85.71
63607;BME280;71992;52.478;-1.918;2023-08-08T11:18:24;99625.75;;;15.62;86.33
63607;BME280;71992;52.478;-1.918;2023-08-08T11:20:58;99626.00;;;15.59;86.36
63607;BME280;71992;52.478;-1.918;2023-08-08T11:23:29;99624.44;;;15.57;85.61
63607;BME280;71992;52.478;-1.918;2023-08-08T11:26:05;99625.56;;;15.54;85.96
63607;BME280;71992;52.478;-1.918;2023-08-08T11:28:36;99630.53;;;15.59;86.17
63607;BME280;71992;52.478;-1.918;2023-08-08T11:31:07;99621.66;;;15.68;86.02
63607;BME280;71992;52.478;-1.918;2023-08-08T11:33:38;99626.66;;;15.73;86.06
63607;BME280;71992;52.478;-1.918;2023-08-08T11:36:13;99624.22;;;15.70;84.89
63607;BME280;71992;52.478;-1.918;2023-08-08T11:38:44;99623.97;;;15.73;85.39
63607;BME280;71992;52.478;-1.918;2023-08-08T11:41:17;99616.06;;;15.81;86.14
63607;BME280;71992;52.478;-1.918;2023-08-08T11:43:50;99618.75;;;15.81;86.52
63607;BME280;71992;52.478;-1.918;2023-08-08T11:46:23;99613.50;;;15.79;87.16
63607;BME280;71992;52.478;-1.918;2023-08-08T11:48:55;99610.69;;;15.81;86.23
63607;BME280;71992;52.478;-1.918;2023-08-08T11:51:35;99603.44;;;15.81;86.57
63607;BME280;71992;52.478;-1.918;2023-08-08T11:54:06;99607.28;;;15.79;86.94
63607;BME280;71992;52.478;-1.918;2023-08-08T11:56:38;99605.56;;;15.78;86.18
63607;BME280;71992;52.478;-1.918;2023-08-08T11:59:09;99600.91;;;15.90;86.47
63607;BME280;71992;52.478;-1.918;2023-08-08T12:01:41;99602.09;;;16.06;86.20
63607;BME280;71992;52.478;-1.918;2023-08-08T12:04:13;99596.16;;;16.13;85.11
63607;BME280;71992;52.478;-1.918;2023-08-08T12:06:48;99590.88;;;16.01;84.91
63607;BME280;71992;52.478;-1.918;2023-08-08T12:09:19;99598.50;;;15.96;85.59
63607;BME280;71992;52.478;-1.918;2023-08-08T12:11:50;99594.84;;;15.97;85.30
63607;BME280;71992;52.478;-1.918;2023-08-08T12:14:23;99593.00;;;15.98;84.85
63607;BME280;71992;52.478;-1.918;2023-08-08T12:16:55;99594.25;;;15.94;84.57
63607;BME280;71992;52.478;-1.918;2023-08-08T12:19:26;99590.28;;;15.88;84.87
63607;BME280;71992;52.478;-1.918;2023-08-08T12:21:59;99587.84;;;15.85;85.06
63607;BME280;71992;52.478;-1.918;2023-08-08T12:24:30;99584.63;;;15.91;85.41
63607;BME280;71992;52.478;-1.918;2023-08-08T12:27:01;99582.75;;;15.92;85.02
63607;BME280;71992;52.478;-1.918;2023-08-08T12:29:32;99577.38;;;15.92;84.86
63607;BME280;71992;52.478;-1.918;2023-08-08T12:32:03;99569.75;;;15.97;84.68
63607;BME280;71992;52.478;-1.918;2023-08-08T12:34:35;99566.47;;;15.93;84.52
63607;BME280;71992;52.478;-1.918;2023-08-08T12:37:09;99560.25;;;16.12;84.33
63607;BME280;71992;52.478;-1.918;2023-08-08T12:39:40;99571.63;;;16.35;83.81
63607;BME280;71992;52.478;-1.918;2023-08-08T12:42:11;99573.31;;;16.46;83.43
63607;BME280;71992;52.478;-1.918;2023-08-08T12:44:42;99572.44;;;16.55;83.50
63607;BME280;71992;52.478;-1.918;2023-08-08T12:47:14;99573.44;;;16.64;83.15
63607;BME280;71992;52.478;-1.918;2023-08-08T12:49:45;99579.25;;;16.69;83.36
63607;BME280;71992;52.478;-1.918;2023-08-08T12:52:18;99575.13;;;16.75;82.86
63607;BME280;71992;52.478;-1.918;2023-08-08T12:54:50;99574.72;;;16.79;82.34
63607;BME280;71992;52.478;-1.918;2023-08-08T12:57:21;99577.28;;;16.81;82.41
63607;BME280;71992;52.478;-1.918;2023-08-08T12:59:54;99575.00;;;16.76;82.03
63607;BME280;71992;52.478;-1.918;2023-08-08T13:02:25;99565.63;;;16.70;82.33
63607;BME280;71992;52.478;-1.918;2023-08-08T13:04:56;99574.13;;;16.76;82.33
63607;BME280;71992;52.478;-1.918;2023-08-08T13:07:30;99581.38;;;16.75;82.70
63607;BME280;71992;52.478;-1.918;2023-08-08T13:10:02;99578.66;;;16.75;82.74
63607;BME280;71992;52.478;-1.918;2023-08-08T13:12:33;99584.63;;;16.69;82.95
63607;BME280;71992;52.478;-1.918;2023-08-08T13:15:05;99577.97;;;16.63;83.33